Time;durP1;ratioP1;P1;durP2;ratioP2;P2;SDS_P1;SDS_P2;PMS_P1;PMS_P2;Temp;Humidity;BMP_temperature;BMP_pressure;BME280_temperature;BME280_humidity;BME280_pressure;Samples;Min_cycle;Max_cycle;Signal;HPM_P1;HPM_P2
2021/01/06 00:01:18;;;;;;;8.40;4.23;;;3.30;99.90;;;;;;5008912;28;20179;-94
2021/01/06 00:03:50;;;;;;;6.97;3.60;;;3.10;99.90;;;;;;5010058;28;20701;-93
2021/01/06 00:06:23;;;;;;;5.53;3.43;;;3.10;99.90;;;;;;5009742;28;20254;-93
2021/01/06 00:09:10;;;;;;;5.57;3.07;;;3.10;99.90;;;;;;5009105;28;20192;-94
2021/01/06 00:11:39;;;;;;;8.53;4.13;;;3.10;99.90;;;;;;5008538;28;20167;-95
2021/01/06 00:14:11;;;;;;;6.70;3.53;;;3.10;99.90;;;;;;5008398;28;20228;-93
2021/01/06 00:16:37;;;;;;;7.10;3.70;;;3.10;99.90;;;;;;5009477;28;20232;-93
2021/01/06 00:19:12;;;;;;;7.03;3.47;;;3.10;99.90;;;;;;5008488;28;20317;-93
2021/01/06 00:21:40;;;;;;;5.77;3.50;;;3.20;99.90;;;;;;5008372;28;20224;-93
2021/01/06 00:24:06;;;;;;;4.83;3.20;;;3.20;99.90;;;;;;5007882;28;20199;-96
2021/01/06 00:26:36;;;;;;;8.60;4.10;;;3.10;99.90;;;;;;5008199;28;20235;-93
2021/01/06 00:29:10;;;;;;;7.43;4.03;;;3.10;99.90;;;;;;5008431;28;20237;-93
2021/01/06 00:31:50;;;;;;;10.20;4.20;;;3.10;99.90;;;;;;5008630;28;20174;-95
2021/01/06 00:34:18;;;;;;;5.07;3.30;;;3.10;99.90;;;;;;5008428;28;20266;-94
2021/01/06 00:36:46;;;;;;;7.07;3.50;;;3.10;99.90;;;;;;5008190;28;20630;-95
2021/01/06 00:39:15;;;;;;;4.47;3.33;;;3.20;99.90;;;;;;5008610;28;20171;-94
2021/01/06 00:41:43;;;;;;;6.47;3.50;;;3.20;99.90;;;;;;5008394;28;20191;-94
2021/01/06 00:44:13;;;;;;;6.37;3.53;;;3.10;99.90;;;;;;5008915;28;20222;-93
2021/01/06 00:46:39;;;;;;;7.67;3.50;;;3.10;99.90;;;;;;5008753;28;20746;-94
2021/01/06 00:49:07;;;;;;;9.37;4.50;;;3.10;99.90;;;;;;5009342;28;20186;-94
2021/01/06 00:51:34;;;;;;;5.93;3.40;;;3.10;99.90;;;;;;5008589;28;20618;-94
2021/01/06 00:54:00;;;;;;;6.37;3.60;;;3.10;99.90;;;;;;5009102;28;20202;-92
2021/01/06 00:56:32;;;;;;;6.13;2.93;;;3.10;99.90;;;;;;5008918;28;20172;-93
2021/01/06 00:58:59;;;;;;;7.73;3.73;;;3.10;99.90;;;;;;5008968;28;20164;-94
2021/01/06 01:01:27;;;;;;;8.23;3.57;;;3.10;99.90;;;;;;5009246;28;20273;-93
2021/01/06 01:03:54;;;;;;;7.20;3.27;;;3.10;99.90;;;;;;5008968;28;20674;-93
2021/01/06 01:06:27;;;;;;;6.33;3.70;;;3.10;99.90;;;;;;5009275;28;20255;-93
2021/01/06 01:08:55;;;;;;;7.30;3.37;;;3.00;99.90;;;;;;5009039;28;20163;-93
2021/01/06 01:11:24;;;;;;;7.17;3.73;;;3.10;99.90;;;;;;5009493;28;20157;-95
2021/01/06 01:13:55;;;;;;;6.00;3.47;;;3.00;99.90;;;;;;5008621;28;20265;-95
2021/01/06 01:16:22;;;;;;;7.10;3.43;;;3.00;99.90;;;;;;5008837;28;20168;-94
2021/01/06 01:18:49;;;;;;;7.03;3.37;;;3.10;99.90;;;;;;5009077;28;20237;-94
2021/01/06 01:21:22;;;;;;;8.73;4.03;;;3.00;99.90;;;;;;5008848;28;20677;-93
2021/01/06 01:23:54;;;;;;;7.47;3.53;;;3.10;99.90;;;;;;5007985;28;20809;-95
2021/01/06 01:26:20;;;;;;;6.83;3.53;;;3.10;99.90;;;;;;5007722;28;20206;-93
2021/01/06 01:28:49;;;;;;;5.20;3.40;;;3.10;99.90;;;;;;5009025;28;20217;-94
2021/01/06 01:31:15;;;;;;;5.30;3.40;;;3.00;99.90;;;;;;5007933;28;20177;-93
2021/01/06 01:33:43;;;;;;;4.83;2.97;;;3.00;99.90;;;;;;5008376;28;20195;-94
2021/01/06 01:36:09;;;;;;;4.83;2.80;;;3.00;99.90;;;;;;5007687;28;20262;-93
2021/01/06 01:38:38;;;;;;;4.40;2.97;;;3.10;99.90;;;;;;5007938;28;20184;-92
2021/01/06 01:41:11;;;;;;;4.17;3.00;;;3.10;99.90;;;;;;5007039;28;20184;-93
2021/01/06 01:43:39;;;;;;;4.63;3.07;;;3.00;99.90;;;;;;5006553;28;20207;-94
2021/01/06 01:46:07;;;;;;;4.07;2.90;;;3.00;99.90;;;;;;5007874;28;20255;-93
2021/01/06 01:48:50;;;;;;;5.00;3.23;;;3.00;99.90;;;;;;5008390;28;20238;-93
2021/01/06 01:51:33;;;;;;;3.97;2.73;;;3.10;99.90;;;;;;5007621;28;20172;-94
2021/01/06 01:54:12;;;;;;;3.30;2.77;;;3.10;99.90;;;;;;5008632;28;20269;-94
2021/01/06 01:57:00;;;;;;;4.70;2.97;;;3.10;99.90;;;;;;5008218;28;20185;-95
2021/01/06 01:59:48;;;;;;;4.47;2.77;;;3.10;99.90;;;;;;5008524;28;20179;-93
2021/01/06 02:02:21;;;;;;;4.70;2.70;;;3.10;99.90;;;;;;5008051;28;20175;-93
2021/01/06 02:04:53;;;;;;;5.20;2.53;;;3.10;99.90;;;;;;5007944;28;20300;-94
2021/01/06 02:07:27;;;;;;;4.07;2.20;;;3.10;99.90;;;;;;5008834;28;20183;-92
2021/01/06 02:10:18;;;;;;;5.20;2.63;;;3.10;99.90;;;;;;5007175;28;20203;-93
2021/01/06 02:12:54;;;;;;;3.67;2.33;;;3.10;99.90;;;;;;4998057;28;20862;-93
2021/01/06 02:15:51;;;;;;;4.37;2.40;;;3.00;99.90;;;;;;5007575;28;20179;-94
2021/01/06 02:18:18;;;;;;;4.77;2.33;;;3.10;99.90;;;;;;5007390;28;20254;-94
2021/01/06 02:21:07;;;;;;;3.50;2.23;;;3.10;99.90;;;;;;5007972;28;20183;-93
2021/01/06 02:23:35;;;;;;;4.13;2.40;;;3.00;99.90;;;;;;5007465;28;20293;-93
2021/01/06 02:26:02;;;;;;;3.27;2.20;;;3.00;99.90;;;;;;5008034;28;20258;-94
2021/01/06 02:28:28;;;;;;;3.47;2.30;;;3.10;99.90;;;;;;5008095;28;20169;-94
2021/01/06 02:30:55;;;;;;;2.47;2.00;;;3.10;99.90;;;;;;5007602;28;20176;-93
2021/01/06 02:33:32;;;;;;;3.10;2.10;;;3.00;99.90;;;;;;5007740;28;20200;-93
2021/01/06 02:36:00;;;;;;;3.10;2.03;;;3.00;99.90;;;;;;5007317;28;20190;-94
2021/01/06 02:38:32;;;;;;;4.03;2.20;;;3.00;99.90;;;;;;5012054;28;20175;-93
2021/01/06 02:41:05;;;;;;;2.97;2.13;;;3.10;99.90;;;;;;5011911;28;20176;-94
2021/01/06 02:43:33;;;;;;;4.60;2.37;;;3.00;99.90;;;;;;5012020;28;20224;-93
2021/01/06 02:46:20;;;;;;;2.60;2.20;;;2.90;99.90;;;;;;5011969;28;20259;-93
2021/01/06 02:48:48;;;;;;;3.43;2.30;;;3.00;99.90;;;;;;5011683;28;20171;-93
2021/01/06 02:51:22;;;;;;;2.50;2.30;;;2.90;99.90;;;;;;5011230;28;20193;-92
2021/01/06 02:54:03;;;;;;;3.10;2.03;;;2.90;99.90;;;;;;5011601;28;20196;-93
2021/01/06 02:56:31;;;;;;;3.83;2.50;;;2.90;99.90;;;;;;5011538;28;20267;-94
2021/01/06 02:59:03;;;;;;;4.93;2.27;;;2.90;99.90;;;;;;5009905;28;20190;-93
2021/01/06 03:01:35;;;;;;;3.50;2.30;;;2.90;99.90;;;;;;5010237;28;20195;-96
2021/01/06 03:04:02;;;;;;;4.23;2.47;;;2.90;99.90;;;;;;5010366;28;20218;-93
2021/01/06 03:06:40;;;;;;;4.33;2.40;;;2.90;99.90;;;;;;5011362;28;20290;-95
2021/01/06 03:09:21;;;;;;;5.10;2.63;;;2.90;99.90;;;;;;5010589;28;20265;-94
2021/01/06 03:11:48;;;;;;;5.63;2.90;;;2.90;99.90;;;;;;5011007;28;20167;-93
2021/01/06 03:14:28;;;;;;;4.57;2.70;;;2.90;99.90;;;;;;5011512;28;20271;-95
2021/01/06 03:17:04;;;;;;;4.10;2.80;;;3.00;99.90;;;;;;5009991;28;20167;-92
2021/01/06 03:19:36;;;;;;;3.63;3.10;;;2.80;99.90;;;;;;5010261;28;20203;-93
2021/01/06 03:22:12;;;;;;;3.97;3.13;;;2.90;99.90;;;;;;5010424;28;20210;-94
2021/01/06 03:24:45;;;;;;;4.77;3.00;;;2.90;99.90;;;;;;5010348;28;20201;-96
2021/01/06 03:27:22;;;;;;;5.43;3.07;;;2.90;99.90;;;;;;5008543;28;20203;-94
2021/01/06 03:29:49;;;;;;;5.40;3.57;;;2.80;99.90;;;;;;5010719;28;20202;-94
2021/01/06 03:32:35;;;;;;;6.17;3.47;;;2.90;99.90;;;;;;5009802;28;20172;-94
2021/01/06 03:35:31;;;;;;;8.63;3.47;;;2.90;99.90;;;;;;5010246;28;20183;-94
2021/01/06 03:38:49;;;;;;;4.40;3.40;;;2.90;99.90;;;;;;5010475;28;20160;-94
2021/01/06 03:41:16;;;;;;;6.10;3.37;;;2.90;99.90;;;;;;4998668;28;20187;-94
2021/01/06 03:43:50;;;;;;;6.10;3.20;;;2.90;99.90;;;;;;5009424;28;20191;-93
2021/01/06 03:46:29;;;;;;;4.93;3.40;;;2.90;99.90;;;;;;5008154;28;20198;-94
2021/01/06 03:49:15;;;;;;;5.73;3.90;;;2.80;99.90;;;;;;5326324;23;20231;-95
2021/01/06 03:51:56;;;;;;;8.03;4.27;;;2.80;99.90;;;;;;4996770;28;20176;-96
2021/01/06 03:55:01;;;;;;;7.50;3.97;;;2.70;99.90;;;;;;4996659;28;20590;-94
2021/01/06 03:57:28;;;;;;;6.33;3.70;;;2.80;99.90;;;;;;4983058;28;20196;-95
2021/01/06 03:59:56;;;;;;;6.10;3.17;;;2.90;99.90;;;;;;4997072;28;20335;-96
2021/01/06 04:02:35;;;;;;;4.57;4.03;;;3.00;99.90;;;;;;4997137;28;20184;-93
2021/01/06 04:05:10;;;;;;;6.83;4.40;;;3.00;99.90;;;;;;4996764;28;20239;-93
2021/01/06 04:07:44;;;;;;;5.73;4.10;;;2.90;99.90;;;;;;4996457;28;20192;-93
2021/01/06 04:10:12;;;;;;;6.47;4.20;;;2.90;99.90;;;;;;4996575;28;20174;-95
2021/01/06 04:12:38;;;;;;;7.57;3.83;;;2.90;99.90;;;;;;4996222;28;20275;-92
2021/01/06 04:15:06;;;;;;;8.73;4.23;;;2.90;99.90;;;;;;4996430;28;20184;-95
2021/01/06 04:17:38;;;;;;;6.07;3.73;;;2.80;99.90;;;;;;4996088;28;20215;-94
2021/01/06 04:20:33;;;;;;;6.73;3.90;;;2.80;99.90;;;;;;4984378;28;20188;-95
2021/01/06 04:23:04;;;;;;;9.90;3.97;;;2.90;99.90;;;;;;4977032;28;20167;-95
2021/01/06 04:25:37;;;;;;;5.70;3.50;;;3.00;99.90;;;;;;4976862;28;20200;-95
2021/01/06 04:28:11;;;;;;;6.70;4.03;;;2.90;99.90;;;;;;4977042;28;20183;-94
2021/01/06 04:30:40;;;;;;;5.27;3.67;;;2.90;99.90;;;;;;4977172;28;20600;-95
2021/01/06 04:33:17;;;;;;;6.67;3.90;;;2.90;99.90;;;;;;4976454;28;20197;-94
2021/01/06 04:35:43;;;;;;;5.40;3.87;;;2.90;99.90;;;;;;4976598;28;20208;-94
2021/01/06 04:38:18;;;;;;;7.23;4.33;;;2.90;99.90;;;;;;4976986;28;20204;-95
2021/01/06 04:40:46;;;;;;;5.27;3.83;;;2.90;99.90;;;;;;4976448;28;20180;-96
2021/01/06 04:43:20;;;;;;;5.00;4.00;;;2.90;99.90;;;;;;4976566;28;20172;-94
2021/01/06 04:45:57;;;;;;;6.93;3.83;;;2.80;99.90;;;;;;4976114;28;20208;-95
2021/01/06 04:48:48;;;;;;;6.17;3.97;;;2.80;99.90;;;;;;4976885;28;20176;-95
2021/01/06 04:51:43;;;;;;;4.50;3.50;;;2.80;99.90;;;;;;4976196;28;20339;-93
2021/01/06 04:54:46;;;;;;;8.40;3.60;;;2.90;99.90;;;;;;4976214;28;20177;-95
2021/01/06 04:57:49;;;;;;;10.00;4.83;;;2.90;99.90;;;;;;4976123;28;20230;-93
2021/01/06 05:01:05;;;;;;;5.03;4.03;;;2.90;99.90;;;;;;4976005;28;20184;-95
2021/01/06 05:03:54;;;;;;;6.20;3.93;;;2.80;99.90;;;;;;4925136;28;20228;-93
2021/01/06 05:06:32;;;;;;;6.00;3.67;;;2.80;99.90;;;;;;4976139;28;20219;-94
2021/01/06 05:09:08;;;;;;;4.40;3.50;;;2.80;99.90;;;;;;4976429;28;20246;-94
2021/01/06 05:11:46;;;;;;;9.53;3.93;;;2.90;99.90;;;;;;4975778;28;20180;-93
2021/01/06 05:14:17;;;;;;;7.30;4.20;;;2.80;99.90;;;;;;4975709;28;20169;-93
2021/01/06 05:16:46;;;;;;;7.53;4.03;;;2.70;99.90;;;;;;4975358;28;20185;-94
2021/01/06 05:19:16;;;;;;;6.07;3.93;;;2.70;99.90;;;;;;4975624;28;20184;-94
2021/01/06 05:21:42;;;;;;;7.07;4.73;;;2.80;99.90;;;;;;4975572;28;20180;-94
2021/01/06 05:24:24;;;;;;;7.30;4.90;;;2.70;99.90;;;;;;4975436;28;20183;-95
2021/01/06 05:27:13;;;;;;;6.70;4.30;;;2.70;99.90;;;;;;4975297;28;20216;-94
2021/01/06 05:29:44;;;;;;;7.67;4.40;;;2.70;99.90;;;;;;4975901;28;20292;-94
2021/01/06 05:32:35;;;;;;;7.77;4.40;;;2.70;99.90;;;;;;4975935;28;20209;-95
2021/01/06 05:35:10;;;;;;;7.30;3.97;;;2.70;99.90;;;;;;4976261;28;20291;-95
2021/01/06 05:37:36;;;;;;;11.57;4.47;;;2.70;99.90;;;;;;4975261;28;20187;-93
2021/01/06 05:40:08;;;;;;;8.87;4.40;;;2.70;99.90;;;;;;4975421;28;20199;-95
2021/01/06 05:42:59;;;;;;;6.20;4.30;;;2.70;99.90;;;;;;4975022;28;20649;-94
2021/01/06 05:45:36;;;;;;;6.73;4.60;;;2.60;99.90;;;;;;4975028;28;20216;-94
2021/01/06 05:48:18;;;;;;;7.73;4.53;;;2.60;99.90;;;;;;4975777;28;20183;-94
2021/01/06 05:51:07;;;;;;;6.23;4.33;;;2.60;99.90;;;;;;4974699;28;20272;-95
2021/01/06 05:53:38;;;;;;;11.33;3.97;;;2.60;99.90;;;;;;4974854;28;20604;-94
2021/01/06 05:56:28;;;;;;;5.47;3.93;;;2.60;99.90;;;;;;4975527;28;20183;-95
2021/01/06 05:59:16;;;;;;;6.37;4.30;;;2.60;99.90;;;;;;4975480;28;20195;-95
2021/01/06 06:02:19;;;;;;;5.97;4.27;;;2.60;99.90;;;;;;4945088;28;20530;-96
2021/01/06 06:05:03;;;;;;;5.77;3.80;;;2.60;99.90;;;;;;4975132;28;20259;-95
2021/01/06 06:07:32;;;;;;;6.97;4.33;;;2.50;99.90;;;;;;4975197;28;20196;-96
2021/01/06 06:10:07;;;;;;;6.60;3.97;;;2.50;99.90;;;;;;4974869;28;20231;-95
2021/01/06 06:12:45;;;;;;;5.70;3.87;;;2.50;99.90;;;;;;4974226;28;20267;-95
2021/01/06 06:15:42;;;;;;;7.17;4.47;;;2.50;99.90;;;;;;4975216;28;20177;-94
2021/01/06 06:18:18;;;;;;;5.10;3.90;;;2.40;99.90;;;;;;4969198;28;20180;-95
2021/01/06 06:21:20;;;;;;;6.27;4.30;;;2.40;99.90;;;;;;4974335;28;20257;-94
2021/01/06 06:23:52;;;;;;;6.53;4.23;;;2.40;99.90;;;;;;4975085;28;20631;-95
2021/01/06 06:26:35;;;;;;;6.97;4.63;;;2.40;99.90;;;;;;4974838;28;20214;-95
2021/01/06 06:29:07;;;;;;;7.83;4.37;;;2.40;99.90;;;;;;4974476;28;20184;-96
2021/01/06 06:31:34;;;;;;;6.10;4.20;;;2.40;99.90;;;;;;4974709;28;20180;-94
2021/01/06 06:34:06;;;;;;;7.73;4.13;;;2.30;99.90;;;;;;4974932;28;20173;-96
2021/01/06 06:36:43;;;;;;;6.63;4.30;;;2.40;99.90;;;;;;4974501;28;20172;-93
2021/01/06 06:39:29;;;;;;;6.20;4.50;;;2.30;99.90;;;;;;4974957;28;20177;-95
2021/01/06 06:42:07;;;;;;;7.03;4.80;;;2.30;99.90;;;;;;4974980;28;20570;-95
2021/01/06 06:44:34;;;;;;;7.60;4.60;;;2.30;99.90;;;;;;4974465;28;20268;-95
2021/01/06 06:47:15;;;;;;;6.33;4.40;;;2.30;99.90;;;;;;4974753;28;20246;-94
2021/01/06 06:49:51;;;;;;;8.60;4.37;;;2.30;99.90;;;;;;4974102;28;20298;-96
2021/01/06 06:52:24;;;;;;;8.27;4.60;;;2.30;99.90;;;;;;4974721;28;20275;-96
2021/01/06 06:55:29;;;;;;;8.43;4.47;;;2.30;99.90;;;;;;4974859;28;20220;-95
2021/01/06 06:58:13;;;;;;;4.80;3.07;;;2.30;99.90;;;;;;4970921;28;20274;-93
2021/01/06 07:00:40;;;;;;;8.07;3.80;;;2.20;99.90;;;;;;4974468;28;20180;-93
2021/01/06 07:03:06;;;;;;;14.77;5.37;;;2.20;99.90;;;;;;4974447;28;20223;-96
2021/01/06 07:05:49;;;;;;;9.33;4.23;;;2.20;99.90;;;;;;4974492;28;20244;-94
2021/01/06 07:08:42;;;;;;;5.50;4.30;;;2.20;99.90;;;;;;4974378;28;20196;-94
2021/01/06 07:11:20;;;;;;;5.07;3.93;;;2.20;99.90;;;;;;4965451;28;20192;-94
2021/01/06 07:13:55;;;;;;;7.27;4.27;;;2.20;99.90;;;;;;4974782;28;20176;-92
2021/01/06 07:16:29;;;;;;;8.07;4.63;;;2.10;99.90;;;;;;4974202;28;20181;-93
2021/01/06 07:19:27;;;;;;;5.30;4.20;;;2.20;99.90;;;;;;4974163;28;20181;-94
2021/01/06 07:22:27;;;;;;;7.20;4.50;;;2.10;99.90;;;;;;4966465;28;20198;-93
2021/01/06 07:24:58;;;;;;;6.87;4.70;;;2.10;99.90;;;;;;4977045;28;20197;-92
2021/01/06 07:27:29;;;;;;;9.83;5.07;;;2.00;99.90;;;;;;4977134;28;20191;-93
2021/01/06 07:29:55;;;;;;;8.00;4.90;;;2.00;99.90;;;;;;4977563;28;20565;-93
2021/01/06 07:32:23;;;;;;;9.30;5.13;;;2.10;99.90;;;;;;4977190;28;20263;-94
2021/01/06 07:34:53;;;;;;;8.77;5.57;;;2.10;99.90;;;;;;4977182;28;20181;-93
2021/01/06 07:37:36;;;;;;;8.70;5.50;;;2.00;99.90;;;;;;4977100;28;20242;-93
2021/01/06 07:40:17;;;;;;;13.30;6.63;;;2.00;99.90;;;;;;4976508;28;20191;-94
2021/01/06 07:42:52;;;;;;;7.47;5.60;;;2.00;99.90;;;;;;4976922;28;20600;-94
2021/01/06 07:45:20;;;;;;;10.73;6.60;;;2.00;99.90;;;;;;4977353;28;20684;-92
2021/01/06 07:47:59;;;;;;;7.93;6.13;;;2.00;99.90;;;;;;4977054;28;20241;-94
2021/01/06 07:50:26;;;;;;;8.40;6.00;;;1.90;99.90;;;;;;4980952;28;20220;-91
2021/01/06 07:52:58;;;;;;;10.33;6.40;;;2.00;99.90;;;;;;4968461;28;20212;-93
2021/01/06 07:55:33;;;;;;;10.73;6.70;;;2.00;99.90;;;;;;4968759;28;20181;-93
2021/01/06 07:58:07;;;;;;;7.97;6.27;;;2.00;99.90;;;;;;4976982;28;20209;-94
2021/01/06 08:00:58;;;;;;;10.60;7.27;;;2.00;99.90;;;;;;4980014;28;20208;-92
2021/01/06 08:03:48;;;;;;;8.17;6.07;;;2.00;99.90;;;;;;4979830;28;20314;-93
2021/01/06 08:06:14;;;;;;;8.40;5.90;;;2.00;99.90;;;;;;4979574;28;20353;-95
2021/01/06 08:08:48;;;;;;;9.67;6.27;;;2.00;99.90;;;;;;4979731;28;20733;-94
2021/01/06 08:11:27;;;;;;;9.63;6.47;;;2.00;99.90;;;;;;4980229;28;20571;-93
2021/01/06 08:13:52;;;;;;;7.80;5.73;;;2.00;99.90;;;;;;4980525;28;20203;-92
2021/01/06 08:16:30;;;;;;;10.47;6.33;;;2.00;99.90;;;;;;4980151;28;20567;-93
2021/01/06 08:19:28;;;;;;;8.37;6.30;;;2.00;99.90;;;;;;4977846;28;20261;-94
2021/01/06 08:22:21;;;;;;;8.23;5.83;;;1.90;99.90;;;;;;4960372;28;20191;-93
2021/01/06 08:25:01;;;;;;;10.23;6.23;;;1.90;99.90;;;;;;4960218;28;20231;-93
2021/01/06 08:27:38;;;;;;;6.87;5.37;;;2.00;99.90;;;;;;4977314;28;20186;-94
2021/01/06 08:30:27;;;;;;;8.73;6.27;;;2.00;99.90;;;;;;4960808;28;20175;-94
2021/01/06 08:33:13;;;;;;;7.83;5.67;;;1.90;99.90;;;;;;4960383;28;20203;-94
2021/01/06 08:35:44;;;;;;;8.47;6.33;;;2.00;99.90;;;;;;4959743;28;20184;-93
2021/01/06 08:38:28;;;;;;;9.73;6.93;;;2.00;99.90;;;;;;4960117;28;20223;-93
2021/01/06 08:40:55;;;;;;;8.23;6.27;;;1.90;99.90;;;;;;4960269;28;20241;-93
2021/01/06 08:43:21;;;;;;;10.07;6.60;;;1.90;99.90;;;;;;4959799;28;20559;-94
2021/01/06 08:45:57;;;;;;;9.33;6.37;;;1.90;99.90;;;;;;4960003;28;20216;-92
2021/01/06 08:48:29;;;;;;;9.27;6.00;;;1.90;99.90;;;;;;4958329;28;20172;-93
2021/01/06 08:51:16;;;;;;;7.53;5.70;;;2.00;99.90;;;;;;4959471;28;20208;-94
2021/01/06 08:53:44;;;;;;;8.53;6.03;;;2.00;99.90;;;;;;4960163;28;20203;-94
2021/01/06 08:56:23;;;;;;;8.90;5.20;;;2.00;99.90;;;;;;4959954;28;20659;-92
2021/01/06 08:58:51;;;;;;;6.47;5.03;;;2.00;99.90;;;;;;4959349;28;20179;-93
2021/01/06 09:01:37;;;;;;;8.70;5.87;;;2.00;99.90;;;;;;4976814;28;20187;-94
2021/01/06 09:04:07;;;;;;;6.50;5.00;;;2.00;99.90;;;;;;4939869;29;20185;-92
2021/01/06 09:06:33;;;;;;;7.63;5.60;;;2.00;99.90;;;;;;4940375;29;20322;-92
2021/01/06 09:09:27;;;;;;;8.10;5.03;;;2.00;99.90;;;;;;4940586;29;20235;-94
2021/01/06 09:11:54;;;;;;;7.83;5.47;;;2.00;99.90;;;;;;4940590;29;20260;-93
2021/01/06 09:14:22;;;;;;;7.70;5.47;;;1.90;99.90;;;;;;4940479;29;20185;-93
2021/01/06 09:17:03;;;;;;;8.07;5.93;;;2.00;99.90;;;;;;4940404;29;20691;-93
2021/01/06 09:19:48;;;;;;;9.90;5.73;;;2.00;99.90;;;;;;4940402;29;20187;-91
2021/01/06 09:22:16;;;;;;;8.23;5.50;;;2.00;99.90;;;;;;4940373;29;20398;-93
2021/01/06 09:24:42;;;;;;;8.00;5.73;;;2.00;99.90;;;;;;4940233;29;20184;-92
2021/01/06 09:27:40;;;;;;;7.83;5.27;;;1.90;99.90;;;;;;4940139;29;20213;-92
2021/01/06 09:30:33;;;;;;;8.07;5.73;;;2.00;99.90;;;;;;4939813;29;20236;-92
2021/01/06 09:33:02;;;;;;;6.83;4.57;;;1.90;99.90;;;;;;4932890;29;20283;-91
2021/01/06 09:35:32;;;;;;;7.57;5.30;;;2.00;99.90;;;;;;4939771;29;20178;-92
2021/01/06 09:38:03;;;;;;;9.17;6.33;;;2.00;99.90;;;;;;4940102;29;20200;-91
2021/01/06 09:40:31;;;;;;;9.43;6.23;;;1.90;99.90;;;;;;4939701;29;20743;-91
2021/01/06 09:43:07;;;;;;;8.03;5.30;;;1.90;99.90;;;;;;4939731;29;20249;-92
2021/01/06 09:45:34;;;;;;;7.23;5.37;;;2.00;99.90;;;;;;4939460;29;20207;-93
2021/01/06 09:48:03;;;;;;;10.10;5.27;;;2.00;99.90;;;;;;4939810;29;20236;-93
2021/01/06 09:50:44;;;;;;;7.70;5.23;;;2.00;99.90;;;;;;4966667;28;20248;-93
2021/01/06 09:53:13;;;;;;;6.80;5.17;;;2.00;99.90;;;;;;4974541;28;20666;-94
2021/01/06 09:55:44;;;;;;;6.90;5.13;;;2.10;99.90;;;;;;4969569;28;20261;-93
2021/01/06 09:58:18;;;;;;;7.23;5.67;;;2.10;99.90;;;;;;4975177;28;20187;-94
2021/01/06 10:00:50;;;;;;;7.37;4.87;;;2.10;99.90;;;;;;4969992;28;20184;-94
2021/01/06 10:03:16;;;;;;;6.97;4.60;;;2.10;99.90;;;;;;4975289;28;20246;-93
2021/01/06 10:05:55;;;;;;;5.60;3.93;;;2.10;99.90;;;;;;4969335;28;20605;-94
2021/01/06 10:08:30;;;;;;;7.10;4.53;;;2.10;99.90;;;;;;4974923;28;20559;-93
2021/01/06 10:11:25;;;;;;;5.90;4.23;;;2.10;99.90;;;;;;4974471;28;20629;-96
2021/01/06 10:14:17;;;;;;;5.97;4.07;;;2.10;99.90;;;;;;4974131;28;20394;-93
2021/01/06 10:16:57;;;;;;;7.90;4.87;;;2.10;99.90;;;;;;4972733;28;20613;-93
2021/01/06 10:20:02;;;;;;;8.77;5.20;;;2.10;99.90;;;;;;4972770;28;20695;-94
2021/01/06 10:22:47;;;;;;;6.40;4.80;;;2.10;99.90;;;;;;4954995;28;20188;-93
2021/01/06 10:25:26;;;;;;;6.70;4.37;;;2.20;99.90;;;;;;4975992;28;20269;-94
2021/01/06 10:28:09;;;;;;;6.30;4.60;;;2.20;99.90;;;;;;4973038;28;20204;-94
2021/01/06 10:30:35;;;;;;;8.10;5.53;;;2.30;99.90;;;;;;4972871;28;20177;-93
2021/01/06 10:33:16;;;;;;;5.30;4.00;;;2.30;99.90;;;;;;4973950;28;20187;-94
2021/01/06 10:35:56;;;;;;;4.17;3.47;;;2.20;99.90;;;;;;4960152;28;20176;-93
2021/01/06 10:38:24;;;;;;;5.17;4.13;;;2.20;99.90;;;;;;4974951;28;20171;-95
2021/01/06 10:41:09;;;;;;;5.67;4.17;;;2.20;99.90;;;;;;4974952;28;20185;-93
2021/01/06 10:43:55;;;;;;;4.60;3.47;;;2.20;99.90;;;;;;4958129;28;20219;-93
2021/01/06 10:46:33;;;;;;;4.17;3.40;;;2.30;99.90;;;;;;4974551;28;20551;-94
2021/01/06 10:48:59;;;;;;;5.87;3.37;;;2.30;99.90;;;;;;4971465;28;20220;-93
2021/01/06 10:51:59;;;;;;;4.93;3.70;;;2.30;99.90;;;;;;4975053;28;20687;-94
2021/01/06 10:54:24;;;;;;;4.10;3.40;;;2.30;99.90;;;;;;4958755;28;20185;-93
2021/01/06 10:56:51;;;;;;;3.73;3.13;;;2.30;99.90;;;;;;4958656;28;20180;-94
2021/01/06 10:59:17;;;;;;;3.87;2.90;;;2.40;99.90;;;;;;4961987;28;20273;-94
2021/01/06 11:02:22;;;;;;;4.80;3.20;;;2.40;99.90;;;;;;4961804;28;20176;-92
2021/01/06 11:05:08;;;;;;;3.83;2.87;;;2.50;99.90;;;;;;4942946;29;20256;-93
2021/01/06 11:08:11;;;;;;;3.83;3.37;;;2.50;99.90;;;;;;4984891;28;20612;-93
2021/01/06 11:10:45;;;;;;;3.43;2.80;;;2.60;99.90;;;;;;4961565;28;20615;-92
2021/01/06 11:13:23;;;;;;;3.83;3.07;;;2.60;99.90;;;;;;4961934;28;20210;-93
2021/01/06 11:16:18;;;;;;;2.87;2.20;;;2.60;99.90;;;;;;4977924;28;20510;-92
2021/01/06 11:18:47;;;;;;;2.90;2.50;;;2.60;99.90;;;;;;4932674;28;20192;-93
2021/01/06 11:21:12;;;;;;;6.13;3.37;;;2.60;99.90;;;;;;4961478;28;20184;-92
2021/01/06 11:23:45;;;;;;;3.40;2.90;;;2.60;99.90;;;;;;4961714;28;20183;-92
2021/01/06 11:26:24;;;;;;;3.07;2.70;;;2.60;99.90;;;;;;4960925;28;20201;-94
2021/01/06 11:29:11;;;;;;;3.43;2.40;;;2.60;99.90;;;;;;4960886;28;20658;-92
2021/01/06 11:32:02;;;;;;;3.00;2.20;;;2.60;99.90;;;;;;4963801;28;20211;-93
2021/01/06 11:35:17;;;;;;;2.80;2.10;;;2.60;99.90;;;;;;4957289;29;20185;-92
2021/01/06 11:37:44;;;;;;;3.23;2.70;;;2.60;99.90;;;;;;4929158;29;20668;-94
2021/01/06 11:40:27;;;;;;;4.90;2.13;;;2.60;99.90;;;;;;4948091;28;20180;-93
2021/01/06 11:43:25;;;;;;;2.97;2.10;;;2.60;99.90;;;;;;4970970;28;20184;-93
2021/01/06 11:45:52;;;;;;;3.67;2.60;;;2.60;99.90;;;;;;4954101;28;20237;-94
2021/01/06 11:48:34;;;;;;;3.27;2.27;;;2.60;99.90;;;;;;4961177;28;20244;-92
2021/01/06 11:51:21;;;;;;;4.50;2.20;;;2.60;99.90;;;;;;4957676;29;20189;-93
2021/01/06 11:54:15;;;;;;;4.20;2.70;;;2.50;99.90;;;;;;4941397;29;20192;-94
2021/01/06 11:56:49;;;;;;;5.10;3.30;;;2.60;99.90;;;;;;4944340;29;20174;-92
2021/01/06 11:59:22;;;;;;;2.63;2.17;;;2.60;99.90;;;;;;4946981;29;20410;-93
2021/01/06 12:02:06;;;;;;;3.13;2.43;;;2.50;99.90;;;;;;4947325;29;20210;-92
2021/01/06 12:04:35;;;;;;;2.50;2.00;;;2.60;99.90;;;;;;4964808;28;20169;-92
2021/01/06 12:07:25;;;;;;;4.13;2.30;;;2.60;99.90;;;;;;4949490;28;20216;-94
2021/01/06 12:10:03;;;;;;;3.93;2.37;;;2.50;99.90;;;;;;4943196;29;20564;-93
2021/01/06 12:12:54;;;;;;;3.20;2.03;;;2.50;99.90;;;;;;4941491;29;20176;-92
2021/01/06 12:15:32;;;;;;;2.80;1.97;;;2.50;99.90;;;;;;4958616;29;20169;-93
2021/01/06 12:18:02;;;;;;;2.30;1.87;;;2.50;99.90;;;;;;4941604;29;20170;-95
2021/01/06 12:20:34;;;;;;;2.30;1.70;;;2.50;99.90;;;;;;4941113;29;20185;-96
2021/01/06 12:23:15;;;;;;;2.63;2.27;;;2.50;99.90;;;;;;4925358;29;20625;-93
2021/01/06 12:25:49;;;;;;;3.57;2.00;;;2.50;99.90;;;;;;4941299;29;20640;-93
2021/01/06 12:28:33;;;;;;;4.00;2.00;;;2.50;99.90;;;;;;4941713;29;20272;-93
2021/01/06 12:31:08;;;;;;;2.30;1.80;;;2.50;99.90;;;;;;4941043;29;20178;-93
2021/01/06 12:33:40;;;;;;;2.93;1.87;;;2.50;99.90;;;;;;4940667;29;20178;-93
2021/01/06 12:36:20;;;;;;;2.83;1.90;;;2.50;99.90;;;;;;4921556;29;20617;-93
2021/01/06 12:38:46;;;;;;;2.10;1.90;;;2.50;99.90;;;;;;4932993;29;20495;-94
2021/01/06 12:41:19;;;;;;;2.50;1.90;;;2.50;99.90;;;;;;4940572;29;20182;-93
2021/01/06 12:43:47;;;;;;;2.13;1.80;;;2.50;99.90;;;;;;4940910;29;20640;-94
2021/01/06 12:46:18;;;;;;;1.63;1.40;;;2.50;99.90;;;;;;4924547;29;20608;-91
2021/01/06 12:48:57;;;;;;;1.70;1.60;;;2.50;99.90;;;;;;4940697;28;20173;-94
2021/01/06 12:51:30;;;;;;;1.83;1.60;;;2.50;99.90;;;;;;4956527;29;20197;-93
2021/01/06 12:54:06;;;;;;;1.67;1.40;;;2.50;99.90;;;;;;4973554;28;20180;-93
2021/01/06 12:56:40;;;;;;;1.30;1.20;;;2.50;99.90;;;;;;4975955;28;20188;-93
2021/01/06 12:59:17;;;;;;;1.60;1.40;;;2.50;99.90;;;;;;4976199;28;20173;-93
2021/01/06 13:01:51;;;;;;;2.10;1.60;;;2.50;99.90;;;;;;4977078;28;20616;-93
2021/01/06 13:04:20;;;;;;;1.97;1.50;;;2.50;99.90;;;;;;4976142;28;20268;-92
2021/01/06 13:06:57;;;;;;;1.77;1.47;;;2.50;99.90;;;;;;4975468;28;20251;-93
2021/01/06 13:09:33;;;;;;;1.50;1.20;;;2.50;99.90;;;;;;4976003;28;20182;-94
2021/01/06 13:12:02;;;;;;;2.40;1.50;;;2.50;99.90;;;;;;4975769;28;20235;-94
2021/01/06 13:14:27;;;;;;;2.27;1.77;;;2.50;99.90;;;;;;4959880;28;20181;-93
2021/01/06 13:16:56;;;;;;;1.37;1.10;;;2.50;99.90;;;;;;4959693;28;20695;-93
2021/01/06 13:19:24;;;;;;;1.73;1.50;;;2.40;99.90;;;;;;4976896;28;20638;-93
2021/01/06 13:22:17;;;;;;;2.63;1.80;;;2.50;99.90;;;;;;4960145;28;20513;-93
2021/01/06 13:24:45;;;;;;;2.03;1.80;;;2.50;99.90;;;;;;4975652;28;20634;-93
2021/01/06 13:27:50;;;;;;;2.03;1.80;;;2.30;99.90;;;;;;4975713;28;20303;-93
2021/01/06 13:30:33;;;;;;;1.87;1.67;;;2.30;99.90;;;;;;4959139;28;20641;-93
2021/01/06 13:33:32;;;;;;;2.67;1.80;;;2.30;99.90;;;;;;4959804;28;20184;-94
2021/01/06 13:35:58;;;;;;;3.07;2.17;;;2.40;99.90;;;;;;4975809;28;20180;-95
2021/01/06 13:38:27;;;;;;;2.23;1.80;;;2.40;99.90;;;;;;4960008;28;20180;-96
2021/01/06 13:40:55;;;;;;;2.43;1.57;;;2.40;99.90;;;;;;4976093;28;20185;-92
2021/01/06 13:43:33;;;;;;;2.70;1.90;;;2.30;99.90;;;;;;4976023;28;20212;-92
2021/01/06 13:46:22;;;;;;;2.60;1.70;;;2.40;99.90;;;;;;4977410;28;20288;-96
2021/01/06 13:49:04;;;;;;;2.70;1.80;;;2.40;99.90;;;;;;4975620;28;20278;-95